sensor_id;sensor_type;location;lat;lon;timestamp;P1;durP1;ratioP1;P2;durP2;ratioP2
57573;SDS011;68988;49.000;21.242;2023-05-10T00:01:22;0.77;;;0.77;;
57573;SDS011;68988;49.000;21.242;2023-05-10T00:03:47;0.80;;;0.80;;
57573;SDS011;68988;49.000;21.242;2023-05-10T00:06:13;0.90;;;0.70;;
57573;SDS011;68988;49.000;21.242;2023-05-10T00:08:38;0.90;;;0.90;;
57573;SDS011;68988;49.000;21.242;2023-05-10T00:11:03;0.95;;;0.95;;
57573;SDS011;68988;49.000;21.242;2023-05-10T00:13:29;0.70;;;0.70;;
57573;SDS011;68988;49.000;21.242;2023-05-10T00:15:54;0.80;;;0.80;;
57573;SDS011;68988;49.000;21.242;2023-05-10T00:18:20;1.38;;;0.90;;
57573;SDS011;68988;49.000;21.242;2023-05-10T00:20:45;0.80;;;0.80;;
57573;SDS011;68988;49.000;21.242;2023-05-10T00:23:14;0.88;;;0.88;;
57573;SDS011;68988;49.000;21.242;2023-05-10T00:25:39;0.80;;;0.80;;
57573;SDS011;68988;49.000;21.242;2023-05-10T00:28:04;0.85;;;0.85;;
57573;SDS011;68988;49.000;21.242;2023-05-10T00:30:30;1.00;;;1.00;;
57573;SDS011;68988;49.000;21.242;2023-05-10T00:32:55;0.80;;;0.80;;
57573;SDS011;68988;49.000;21.242;2023-05-10T00:35:21;0.95;;;0.95;;
57573;SDS011;68988;49.000;21.242;2023-05-10T00:37:46;1.02;;;0.93;;
57573;SDS011;68988;49.000;21.242;2023-05-10T00:40:12;0.90;;;0.90;;
57573;SDS011;68988;49.000;21.242;2023-05-10T00:42:37;1.05;;;1.00;;
57573;SDS011;68988;49.000;21.242;2023-05-10T00:45:03;1.13;;;1.02;;
57573;SDS011;68988;49.000;21.242;2023-05-10T00:47:29;0.75;;;0.75;;
57573;SDS011;68988;49.000;21.242;2023-05-10T00:49:54;1.02;;;1.02;;
57573;SDS011;68988;49.000;21.242;2023-05-10T00:52:20;0.85;;;0.85;;
57573;SDS011;68988;49.000;21.242;2023-05-10T00:54:48;0.98;;;0.98;;
57573;SDS011;68988;49.000;21.242;2023-05-10T00:57:15;0.82;;;0.82;;
57573;SDS011;68988;49.000;21.242;2023-05-10T00:59:40;0.85;;;0.85;;
57573;SDS011;68988;49.000;21.242;2023-05-10T01:02:06;1.13;;;1.02;;
57573;SDS011;68988;49.000;21.242;2023-05-10T01:04:31;0.80;;;0.80;;
57573;SDS011;68988;49.000;21.242;2023-05-10T01:06:58;1.00;;;1.00;;
57573;SDS011;68988;49.000;21.242;2023-05-10T01:09:24;0.90;;;0.90;;
57573;SDS011;68988;49.000;21.242;2023-05-10T01:11:51;1.30;;;1.08;;
57573;SDS011;68988;49.000;21.242;2023-05-10T01:14:17;1.00;;;1.00;;
57573;SDS011;68988;49.000;21.242;2023-05-10T01:16:44;0.88;;;0.88;;
57573;SDS011;68988;49.000;21.242;2023-05-10T01:19:28;1.20;;;1.10;;
57573;SDS011;68988;49.000;21.242;2023-05-10T01:30:16;1.35;;;1.25;;
57573;SDS011;68988;49.000;21.242;2023-05-10T01:43:56;1.10;;;1.10;;
57573;SDS011;68988;49.000;21.242;2023-05-10T01:46:35;0.90;;;0.90;;
57573;SDS011;68988;49.000;21.242;2023-05-10T01:49:03;0.80;;;0.80;;
57573;SDS011;68988;49.000;21.242;2023-05-10T01:51:47;0.98;;;0.98;;
57573;SDS011;68988;49.000;21.242;2023-05-10T01:54:17;0.90;;;0.90;;
57573;SDS011;68988;49.000;21.242;2023-05-10T01:56:45;1.02;;;1.02;;
57573;SDS011;68988;49.000;21.242;2023-05-10T01:59:16;0.90;;;0.90;;
57573;SDS011;68988;49.000;21.242;2023-05-10T02:01:44;1.30;;;1.20;;
57573;SDS011;68988;49.000;21.242;2023-05-10T02:04:13;1.10;;;1.10;;
57573;SDS011;68988;49.000;21.242;2023-05-10T02:06:41;1.35;;;1.25;;
57573;SDS011;68988;49.000;21.242;2023-05-10T02:09:09;1.02;;;0.93;;
57573;SDS011;68988;49.000;21.242;2023-05-10T02:11:37;1.20;;;1.10;;
57573;SDS011;68988;49.000;21.242;2023-05-10T02:14:05;1.17;;;1.10;;
57573;SDS011;68988;49.000;21.242;2023-05-10T02:16:34;0.80;;;0.80;;
57573;SDS011;68988;49.000;21.242;2023-05-10T02:19:02;1.33;;;1.30;;
57573;SDS011;68988;49.000;21.242;2023-05-10T02:21:29;1.00;;;1.00;;
57573;SDS011;68988;49.000;21.242;2023-05-10T02:23:55;1.20;;;1.10;;
57573;SDS011;68988;49.000;21.242;2023-05-10T02:26:23;0.90;;;0.90;;
57573;SDS011;68988;49.000;21.242;2023-05-10T02:28:50;1.00;;;1.00;;
57573;SDS011;68988;49.000;21.242;2023-05-10T02:31:17;1.05;;;0.95;;
57573;SDS011;68988;49.000;21.242;2023-05-10T02:33:44;1.00;;;0.90;;
57573;SDS011;68988;49.000;21.242;2023-05-10T02:36:11;1.20;;;1.10;;
57573;SDS011;68988;49.000;21.242;2023-05-10T02:38:38;1.08;;;1.08;;
57573;SDS011;68988;49.000;21.242;2023-05-10T02:41:04;1.13;;;1.10;;
57573;SDS011;68988;49.000;21.242;2023-05-10T02:43:31;1.40;;;1.30;;
57573;SDS011;68988;49.000;21.242;2023-05-10T02:45:58;1.15;;;1.05;;
57573;SDS011;68988;49.000;21.242;2023-05-10T02:48:23;1.40;;;1.30;;
57573;SDS011;68988;49.000;21.242;2023-05-10T02:50:49;0.80;;;0.80;;
57573;SDS011;68988;49.000;21.242;2023-05-10T02:53:25;1.17;;;1.17;;
57573;SDS011;68988;49.000;21.242;2023-05-10T02:55:57;1.20;;;1.10;;
57573;SDS011;68988;49.000;21.242;2023-05-10T02:58:28;0.90;;;0.90;;
57573;SDS011;68988;49.000;21.242;2023-05-10T03:00:54;1.00;;;1.00;;
57573;SDS011;68988;49.000;21.242;2023-05-10T03:03:19;1.08;;;1.02;;
57573;SDS011;68988;49.000;21.242;2023-05-10T03:05:44;1.30;;;1.20;;
57573;SDS011;68988;49.000;21.242;2023-05-10T03:08:10;1.40;;;1.30;;
57573;SDS011;68988;49.000;21.242;2023-05-10T03:10:41;1.20;;;1.20;;
57573;SDS011;68988;49.000;21.242;2023-05-10T03:13:25;1.30;;;1.20;;
57573;SDS011;68988;49.000;21.242;2023-05-10T03:18:41;1.00;;;1.00;;
57573;SDS011;68988;49.000;21.242;2023-05-10T03:21:10;1.35;;;1.10;;
57573;SDS011;68988;49.000;21.242;2023-05-10T03:23:51;1.10;;;1.10;;
57573;SDS011;68988;49.000;21.242;2023-05-10T03:26:24;1.20;;;1.20;;
57573;SDS011;68988;49.000;21.242;2023-05-10T03:28:51;1.50;;;1.40;;
57573;SDS011;68988;49.000;21.242;2023-05-10T03:31:18;1.25;;;1.15;;
57573;SDS011;68988;49.000;21.242;2023-05-10T03:33:47;1.20;;;1.20;;
57573;SDS011;68988;49.000;21.242;2023-05-10T03:36:14;1.00;;;1.00;;
57573;SDS011;68988;49.000;21.242;2023-05-10T03:38:39;1.58;;;1.48;;
57573;SDS011;68988;49.000;21.242;2023-05-10T03:41:05;1.30;;;1.20;;
57573;SDS011;68988;49.000;21.242;2023-05-10T03:43:30;1.48;;;1.38;;
57573;SDS011;68988;49.000;21.242;2023-05-10T03:45:55;1.42;;;1.27;;
57573;SDS011;68988;49.000;21.242;2023-05-10T03:48:20;1.20;;;1.10;;
57573;SDS011;68988;49.000;21.242;2023-05-10T03:50:46;1.42;;;1.33;;
57573;SDS011;68988;49.000;21.242;2023-05-10T03:53:11;1.30;;;1.20;;
57573;SDS011;68988;49.000;21.242;2023-05-10T03:55:37;1.08;;;1.08;;
57573;SDS011;68988;49.000;21.242;2023-05-10T03:58:02;1.10;;;1.10;;
57573;SDS011;68988;49.000;21.242;2023-05-10T04:00:28;1.08;;;1.08;;
57573;SDS011;68988;49.000;21.242;2023-05-10T04:02:53;1.10;;;1.00;;
57573;SDS011;68988;49.000;21.242;2023-05-10T04:05:18;1.27;;;1.17;;
57573;SDS011;68988;49.000;21.242;2023-05-10T04:07:44;1.27;;;1.27;;
57573;SDS011;68988;49.000;21.242;2023-05-10T04:10:10;1.30;;;1.30;;
57573;SDS011;68988;49.000;21.242;2023-05-10T04:12:36;1.20;;;1.20;;
57573;SDS011;68988;49.000;21.242;2023-05-10T04:15:01;1.10;;;1.10;;
57573;SDS011;68988;49.000;21.242;2023-05-10T04:17:27;1.50;;;1.40;;
57573;SDS011;68988;49.000;21.242;2023-05-10T04:19:52;1.40;;;1.30;;
57573;SDS011;68988;49.000;21.242;2023-05-10T04:22:19;1.13;;;1.13;;
57573;SDS011;68988;49.000;21.242;2023-05-10T04:24:45;1.27;;;1.27;;
57573;SDS011;68988;49.000;21.242;2023-05-10T04:27:10;1.30;;;1.20;;
57573;SDS011;68988;49.000;21.242;2023-05-10T04:29:36;1.30;;;1.20;;
57573;SDS011;68988;49.000;21.242;2023-05-10T04:32:01;1.40;;;1.30;;
57573;SDS011;68988;49.000;21.242;2023-05-10T04:34:28;1.13;;;1.13;;
57573;SDS011;68988;49.000;21.242;2023-05-10T04:36:54;1.40;;;1.40;;
57573;SDS011;68988;49.000;21.242;2023-05-10T04:39:19;1.10;;;1.10;;
57573;SDS011;68988;49.000;21.242;2023-05-10T04:41:45;1.02;;;1.02;;
57573;SDS011;68988;49.000;21.242;2023-05-10T04:44:10;1.40;;;1.30;;
57573;SDS011;68988;49.000;21.242;2023-05-10T04:46:35;1.25;;;1.20;;
57573;SDS011;68988;49.000;21.242;2023-05-10T04:49:01;1.30;;;1.30;;
57573;SDS011;68988;49.000;21.242;2023-05-10T04:51:26;1.42;;;1.33;;
57573;SDS011;68988;49.000;21.242;2023-05-10T04:53:52;1.10;;;1.10;;
57573;SDS011;68988;49.000;21.242;2023-05-10T04:56:17;1.10;;;1.10;;
57573;SDS011;68988;49.000;21.242;2023-05-10T04:58:42;3.63;;;3.30;;
57573;SDS011;68988;49.000;21.242;2023-05-10T05:01:08;4.65;;;1.90;;
57573;SDS011;68988;49.000;21.242;2023-05-10T05:03:35;2.20;;;1.42;;
57573;SDS011;68988;49.000;21.242;2023-05-10T05:06:01;1.40;;;1.30;;
57573;SDS011;68988;49.000;21.242;2023-05-10T05:08:26;1.80;;;1.45;;
57573;SDS011;68988;49.000;21.242;2023-05-10T05:10:52;1.40;;;1.40;;
57573;SDS011;68988;49.000;21.242;2023-05-10T05:13:17;1.55;;;1.40;;
57573;SDS011;68988;49.000;21.242;2023-05-10T05:15:43;1.88;;;1.77;;
57573;SDS011;68988;49.000;21.242;2023-05-10T05:18:08;1.55;;;1.45;;
57573;SDS011;68988;49.000;21.242;2023-05-10T05:20:34;1.60;;;1.50;;
57573;SDS011;68988;49.000;21.242;2023-05-10T05:22:59;1.50;;;1.40;;
57573;SDS011;68988;49.000;21.242;2023-05-10T05:25:25;1.50;;;1.38;;
57573;SDS011;68988;49.000;21.242;2023-05-10T05:27:51;5.05;;;1.90;;
57573;SDS011;68988;49.000;21.242;2023-05-10T05:30:16;1.55;;;1.45;;
57573;SDS011;68988;49.000;21.242;2023-05-10T05:32:42;2.03;;;1.92;;
57573;SDS011;68988;49.000;21.242;2023-05-10T05:35:07;11.85;;;1.65;;
57573;SDS011;68988;49.000;21.242;2023-05-10T05:37:32;6.18;;;1.65;;
57573;SDS011;68988;49.000;21.242;2023-05-10T05:39:58;7.55;;;1.77;;
57573;SDS011;68988;49.000;21.242;2023-05-10T05:42:23;1.67;;;1.58;;
57573;SDS011;68988;49.000;21.242;2023-05-10T05:44:49;4.15;;;1.45;;
57573;SDS011;68988;49.000;21.242;2023-05-10T05:47:14;4.20;;;1.50;;
57573;SDS011;68988;49.000;21.242;2023-05-10T05:49:40;12.93;;;1.80;;
57573;SDS011;68988;49.000;21.242;2023-05-10T05:52:05;3.53;;;1.40;;
57573;SDS011;68988;49.000;21.242;2023-05-10T05:54:30;1.67;;;1.58;;
57573;SDS011;68988;49.000;21.242;2023-05-10T05:56:56;11.10;;;1.60;;
57573;SDS011;68988;49.000;21.242;2023-05-10T05:59:22;10.98;;;1.98;;
57573;SDS011;68988;49.000;21.242;2023-05-10T06:01:48;1.88;;;1.48;;
57573;SDS011;68988;49.000;21.242;2023-05-10T06:04:13;4.85;;;1.45;;
57573;SDS011;68988;49.000;21.242;2023-05-10T06:06:39;10.07;;;1.88;;
57573;SDS011;68988;49.000;21.242;2023-05-10T06:09:04;10.52;;;2.42;;
57573;SDS011;68988;49.000;21.242;2023-05-10T06:11:30;17.33;;;2.28;;
57573;SDS011;68988;49.000;21.242;2023-05-10T06:13:57;15.13;;;2.03;;
57573;SDS011;68988;49.000;21.242;2023-05-10T06:16:23;11.98;;;1.85;;
57573;SDS011;68988;49.000;21.242;2023-05-10T06:18:48;19.35;;;1.92;;
57573;SDS011;68988;49.000;21.242;2023-05-10T06:21:13;2.20;;;1.85;;
57573;SDS011;68988;49.000;21.242;2023-05-10T06:23:39;11.27;;;2.03;;
57573;SDS011;68988;49.000;21.242;2023-05-10T06:26:05;12.52;;;2.20;;
57573;SDS011;68988;49.000;21.242;2023-05-10T06:28:30;5.85;;;2.33;;
57573;SDS011;68988;49.000;21.242;2023-05-10T06:30:57;8.38;;;2.22;;
57573;SDS011;68988;49.000;21.242;2023-05-10T06:33:22;9.30;;;2.42;;
57573;SDS011;68988;49.000;21.242;2023-05-10T06:35:48;11.77;;;2.22;;
57573;SDS011;68988;49.000;21.242;2023-05-10T06:38:13;11.38;;;2.20;;
57573;SDS011;68988;49.000;21.242;2023-05-10T06:40:41;6.88;;;2.00;;
57573;SDS011;68988;49.000;21.242;2023-05-10T06:43:07;5.93;;;2.15;;
57573;SDS011;68988;49.000;21.242;2023-05-10T06:45:33;3.55;;;1.90;;
57573;SDS011;68988;49.000;21.242;2023-05-10T06:47:58;6.38;;;2.08;;
57573;SDS011;68988;49.000;21.242;2023-05-10T06:50:24;8.52;;;1.92;;
57573;SDS011;68988;49.000;21.242;2023-05-10T06:52:49;10.80;;;1.95;;
57573;SDS011;68988;49.000;21.242;2023-05-10T06:55:14;2.53;;;2.13;;
57573;SDS011;68988;49.000;21.242;2023-05-10T06:57:40;6.13;;;1.80;;
57573;SDS011;68988;49.000;21.242;2023-05-10T07:00:05;3.10;;;2.05;;
57573;SDS011;68988;49.000;21.242;2023-05-10T07:02:31;8.27;;;2.10;;
57573;SDS011;68988;49.000;21.242;2023-05-10T07:04:57;8.32;;;2.30;;
57573;SDS011;68988;49.000;21.242;2023-05-10T07:07:22;6.20;;;1.88;;
57573;SDS011;68988;49.000;21.242;2023-05-10T07:09:48;11.05;;;1.90;;
57573;SDS011;68988;49.000;21.242;2023-05-10T07:12:14;6.25;;;1.70;;
57573;SDS011;68988;49.000;21.242;2023-05-10T07:14:40;15.05;;;2.40;;
57573;SDS011;68988;49.000;21.242;2023-05-10T07:17:05;17.02;;;2.30;;
57573;SDS011;68988;49.000;21.242;2023-05-10T07:19:31;8.60;;;2.38;;
57573;SDS011;68988;49.000;21.242;2023-05-10T07:21:57;19.33;;;2.30;;
57573;SDS011;68988;49.000;21.242;2023-05-10T07:24:23;3.75;;;2.10;;
57573;SDS011;68988;49.000;21.242;2023-05-10T07:26:49;5.30;;;2.15;;
57573;SDS011;68988;49.000;21.242;2023-05-10T07:29:14;9.73;;;1.92;;
57573;SDS011;68988;49.000;21.242;2023-05-10T07:31:40;16.48;;;2.40;;
57573;SDS011;68988;49.000;21.242;2023-05-10T07:34:07;9.05;;;1.80;;
57573;SDS011;68988;49.000;21.242;2023-05-10T07:36:33;9.52;;;2.00;;
57573;SDS011;68988;49.000;21.242;2023-05-10T07:38:59;6.55;;;2.20;;
57573;SDS011;68988;49.000;21.242;2023-05-10T07:41:24;10.70;;;2.10;;
57573;SDS011;68988;49.000;21.242;2023-05-10T07:43:49;11.65;;;2.28;;
57573;SDS011;68988;49.000;21.242;2023-05-10T07:46:15;16.40;;;2.35;;
57573;SDS011;68988;49.000;21.242;2023-05-10T07:48:40;5.90;;;2.40;;
57573;SDS011;68988;49.000;21.242;2023-05-10T07:51:06;5.45;;;2.28;;
57573;SDS011;68988;49.000;21.242;2023-05-10T07:53:34;11.02;;;2.15;;
57573;SDS011;68988;49.000;21.242;2023-05-10T07:55:59;10.25;;;2.20;;
57573;SDS011;68988;49.000;21.242;2023-05-10T07:58:49;16.08;;;2.60;;
57573;SDS011;68988;49.000;21.242;2023-05-10T08:01:15;9.00;;;2.45;;
57573;SDS011;68988;49.000;21.242;2023-05-10T08:03:40;10.02;;;2.50;;
57573;SDS011;68988;49.000;21.242;2023-05-10T08:06:05;9.70;;;2.83;;
57573;SDS011;68988;49.000;21.242;2023-05-10T08:08:31;11.73;;;3.17;;
57573;SDS011;68988;49.000;21.242;2023-05-10T08:10:56;14.15;;;2.58;;
57573;SDS011;68988;49.000;21.242;2023-05-10T08:13:22;16.58;;;2.65;;
57573;SDS011;68988;49.000;21.242;2023-05-10T08:15:47;30.60;;;3.42;;
57573;SDS011;68988;49.000;21.242;2023-05-10T08:18:13;21.15;;;2.92;;
57573;SDS011;68988;49.000;21.242;2023-05-10T08:20:38;11.48;;;2.65;;
57573;SDS011;68988;49.000;21.242;2023-05-10T08:23:04;16.33;;;2.85;;
57573;SDS011;68988;49.000;21.242;2023-05-10T08:25:29;32.17;;;3.00;;
57573;SDS011;68988;49.000;21.242;2023-05-10T08:27:55;28.15;;;3.50;;
57573;SDS011;68988;49.000;21.242;2023-05-10T08:30:20;14.57;;;2.83;;
57573;SDS011;68988;49.000;21.242;2023-05-10T08:32:45;16.73;;;3.63;;
57573;SDS011;68988;49.000;21.242;2023-05-10T08:35:11;21.20;;;3.30;;
57573;SDS011;68988;49.000;21.242;2023-05-10T08:37:36;19.88;;;3.35;;
57573;SDS011;68988;49.000;21.242;2023-05-10T08:40:01;27.83;;;3.13;;
57573;SDS011;68988;49.000;21.242;2023-05-10T08:42:28;18.80;;;3.17;;
57573;SDS011;68988;49.000;21.242;2023-05-10T08:44:55;35.15;;;3.72;;
57573;SDS011;68988;49.000;21.242;2023-05-10T08:47:22;16.15;;;3.20;;
57573;SDS011;68988;49.000;21.242;2023-05-10T08:49:48;30.90;;;3.63;;
57573;SDS011;68988;49.000;21.242;2023-05-10T08:52:16;33.40;;;2.95;;
57573;SDS011;68988;49.000;21.242;2023-05-10T08:54:42;28.58;;;3.60;;
57573;SDS011;68988;49.000;21.242;2023-05-10T08:57:08;29.75;;;3.42;;
57573;SDS011;68988;49.000;21.242;2023-05-10T08:59:35;24.42;;;3.17;;
57573;SDS011;68988;49.000;21.242;2023-05-10T09:02:00;20.08;;;3.47;;
57573;SDS011;68988;49.000;21.242;2023-05-10T09:04:27;22.20;;;3.33;;
57573;SDS011;68988;49.000;21.242;2023-05-10T09:06:54;24.40;;;3.45;;
57573;SDS011;68988;49.000;21.242;2023-05-10T09:09:19;23.08;;;4.03;;
57573;SDS011;68988;49.000;21.242;2023-05-10T09:11:46;15.40;;;3.00;;
57573;SDS011;68988;49.000;21.242;2023-05-10T09:14:12;28.67;;;3.53;;
57573;SDS011;68988;49.000;21.242;2023-05-10T09:16:39;15.85;;;3.38;;
57573;SDS011;68988;49.000;21.242;2023-05-10T09:19:06;15.52;;;3.30;;
57573;SDS011;68988;49.000;21.242;2023-05-10T09:21:33;13.77;;;3.05;;
57573;SDS011;68988;49.000;21.242;2023-05-10T09:24:05;11.77;;;3.47;;
57573;SDS011;68988;49.000;21.242;2023-05-10T09:26:31;19.38;;;3.20;;
57573;SDS011;68988;49.000;21.242;2023-05-10T09:28:58;11.10;;;2.90;;
57573;SDS011;68988;49.000;21.242;2023-05-10T09:31:24;19.80;;;2.80;;
57573;SDS011;68988;49.000;21.242;2023-05-10T09:34:09;23.92;;;3.30;;
57573;SDS011;68988;49.000;21.242;2023-05-10T09:36:35;29.80;;;3.42;;
57573;SDS011;68988;49.000;21.242;2023-05-10T09:39:00;16.27;;;2.95;;
57573;SDS011;68988;49.000;21.242;2023-05-10T09:41:25;24.73;;;3.22;;
57573;SDS011;68988;49.000;21.242;2023-05-10T09:43:55;17.85;;;3.15;;
57573;SDS011;68988;49.000;21.242;2023-05-10T09:46:21;20.67;;;2.83;;
57573;SDS011;68988;49.000;21.242;2023-05-10T09:48:47;20.75;;;3.40;;
57573;SDS011;68988;49.000;21.242;2023-05-10T09:51:23;17.15;;;3.00;;
57573;SDS011;68988;49.000;21.242;2023-05-10T09:54:08;13.63;;;2.90;;
57573;SDS011;68988;49.000;21.242;2023-05-10T09:56:38;15.07;;;2.72;;
57573;SDS011;68988;49.000;21.242;2023-05-10T09:59:05;13.30;;;3.13;;
57573;SDS011;68988;49.000;21.242;2023-05-10T10:01:32;11.18;;;2.70;;
57573;SDS011;68988;49.000;21.242;2023-05-10T10:03:58;15.80;;;2.90;;
57573;SDS011;68988;49.000;21.242;2023-05-10T10:06:27;15.00;;;2.40;;
57573;SDS011;68988;49.000;21.242;2023-05-10T10:08:53;14.18;;;2.45;;
57573;SDS011;68988;49.000;21.242;2023-05-10T10:11:19;9.70;;;2.67;;
57573;SDS011;68988;49.000;21.242;2023-05-10T10:13:45;9.52;;;2.30;;
57573;SDS011;68988;49.000;21.242;2023-05-10T10:16:10;12.10;;;2.55;;
57573;SDS011;68988;49.000;21.242;2023-05-10T10:18:36;15.52;;;2.45;;
57573;SDS011;68988;49.000;21.242;2023-05-10T10:21:05;12.63;;;2.20;;
57573;SDS011;68988;49.000;21.242;2023-05-10T10:23:33;13.75;;;2.33;;
57573;SDS011;68988;49.000;21.242;2023-05-10T10:25:59;8.77;;;2.08;;
57573;SDS011;68988;49.000;21.242;2023-05-10T10:28:32;13.75;;;2.33;;
57573;SDS011;68988;49.000;21.242;2023-05-10T10:31:17;11.40;;;2.17;;
57573;SDS011;68988;49.000;21.242;2023-05-10T10:34:05;7.45;;;2.00;;
57573;SDS011;68988;49.000;21.242;2023-05-10T10:36:42;11.27;;;1.75;;
57573;SDS011;68988;49.000;21.242;2023-05-10T10:39:10;7.95;;;2.15;;
57573;SDS011;68988;49.000;21.242;2023-05-10T10:41:37;6.18;;;1.90;;
57573;SDS011;68988;49.000;21.242;2023-05-10T10:47:03;9.60;;;2.40;;
57573;SDS011;68988;49.000;21.242;2023-05-10T10:50:01;5.20;;;1.80;;
57573;SDS011;68988;49.000;21.242;2023-05-10T10:55:06;9.40;;;1.70;;
57573;SDS011;68988;49.000;21.242;2023-05-10T10:57:46;4.00;;;2.05;;
57573;SDS011;68988;49.000;21.242;2023-05-10T11:08:06;10.68;;;1.98;;
57573;SDS011;68988;49.000;21.242;2023-05-10T11:10:34;13.10;;;2.30;;
57573;SDS011;68988;49.000;21.242;2023-05-10T11:13:00;11.70;;;2.33;;
57573;SDS011;68988;49.000;21.242;2023-05-10T11:15:31;6.90;;;2.00;;
57573;SDS011;68988;49.000;21.242;2023-05-10T11:18:19;11.80;;;2.35;;
57573;SDS011;68988;49.000;21.242;2023-05-10T11:20:58;6.00;;;2.00;;
57573;SDS011;68988;49.000;21.242;2023-05-10T11:23:31;8.68;;;1.75;;
57573;SDS011;68988;49.000;21.242;2023-05-10T11:25:59;17.48;;;2.22;;
57573;SDS011;68988;49.000;21.242;2023-05-10T11:28:28;9.05;;;2.35;;
57573;SDS011;68988;49.000;21.242;2023-05-10T11:30:53;7.30;;;2.10;;
57573;SDS011;68988;49.000;21.242;2023-05-10T11:33:19;4.30;;;2.00;;
57573;SDS011;68988;49.000;21.242;2023-05-10T11:35:45;11.75;;;2.20;;
57573;SDS011;68988;49.000;21.242;2023-05-10T11:38:11;20.15;;;2.08;;
57573;SDS011;68988;49.000;21.242;2023-05-10T11:40:38;12.88;;;2.17;;
57573;SDS011;68988;49.000;21.242;2023-05-10T11:43:04;10.07;;;2.08;;
57573;SDS011;68988;49.000;21.242;2023-05-10T11:45:33;11.10;;;2.10;;
57573;SDS011;68988;49.000;21.242;2023-05-10T11:47:59;11.05;;;2.30;;
57573;SDS011;68988;49.000;21.242;2023-05-10T11:50:26;11.00;;;2.10;;
57573;SDS011;68988;49.000;21.242;2023-05-10T11:52:55;7.53;;;1.90;;
57573;SDS011;68988;49.000;21.242;2023-05-10T11:55:21;8.63;;;2.30;;
57573;SDS011;68988;49.000;21.242;2023-05-10T11:57:51;13.77;;;2.25;;
57573;SDS011;68988;49.000;21.242;2023-05-10T12:00:17;6.50;;;1.95;;
57573;SDS011;68988;49.000;21.242;2023-05-10T12:02:43;2.63;;;1.80;;
57573;SDS011;68988;49.000;21.242;2023-05-10T12:05:08;7.20;;;2.10;;
57573;SDS011;68988;49.000;21.242;2023-05-10T12:07:34;12.75;;;2.20;;
57573;SDS011;68988;49.000;21.242;2023-05-10T12:12:40;5.57;;;1.90;;
57573;SDS011;68988;49.000;21.242;2023-05-10T12:15:10;8.73;;;2.15;;
57573;SDS011;68988;49.000;21.242;2023-05-10T12:17:37;11.80;;;1.90;;
57573;SDS011;68988;49.000;21.242;2023-05-10T12:20:20;12.25;;;1.90;;
57573;SDS011;68988;49.000;21.242;2023-05-10T12:22:52;4.47;;;1.58;;
57573;SDS011;68988;49.000;21.242;2023-05-10T12:25:20;8.80;;;1.92;;
57573;SDS011;68988;49.000;21.242;2023-05-10T12:30:20;5.25;;;1.70;;
57573;SDS011;68988;49.000;21.242;2023-05-10T12:32:46;3.38;;;1.85;;
57573;SDS011;68988;49.000;21.242;2023-05-10T12:35:11;16.58;;;2.25;;
57573;SDS011;68988;49.000;21.242;2023-05-10T12:37:37;11.40;;;1.92;;
57573;SDS011;68988;49.000;21.242;2023-05-10T12:40:07;10.25;;;1.98;;
57573;SDS011;68988;49.000;21.242;2023-05-10T12:42:33;6.53;;;1.80;;
57573;SDS011;68988;49.000;21.242;2023-05-10T12:45:00;6.50;;;1.67;;
57573;SDS011;68988;49.000;21.242;2023-05-10T12:47:27;10.48;;;1.50;;
57573;SDS011;68988;49.000;21.242;2023-05-10T12:49:52;3.05;;;1.60;;
57573;SDS011;68988;49.000;21.242;2023-05-10T12:52:17;4.72;;;1.40;;
57573;SDS011;68988;49.000;21.242;2023-05-10T12:54:43;7.05;;;1.40;;
57573;SDS011;68988;49.000;21.242;2023-05-10T12:57:08;3.83;;;1.42;;
57573;SDS011;68988;49.000;21.242;2023-05-10T12:59:34;5.97;;;1.52;;
57573;SDS011;68988;49.000;21.242;2023-05-10T13:01:59;3.60;;;1.42;;
57573;SDS011;68988;49.000;21.242;2023-05-10T13:04:24;8.30;;;1.70;;
57573;SDS011;68988;49.000;21.242;2023-05-10T13:06:50;3.05;;;1.35;;
57573;SDS011;68988;49.000;21.242;2023-05-10T13:09:15;2.53;;;1.75;;
57573;SDS011;68988;49.000;21.242;2023-05-10T13:11:41;3.78;;;1.30;;
57573;SDS011;68988;49.000;21.242;2023-05-10T13:14:06;9.98;;;1.92;;
57573;SDS011;68988;49.000;21.242;2023-05-10T13:16:32;2.65;;;1.25;;
57573;SDS011;68988;49.000;21.242;2023-05-10T13:18:57;4.65;;;1.60;;
57573;SDS011;68988;49.000;21.242;2023-05-10T13:21:23;3.50;;;1.35;;
57573;SDS011;68988;49.000;21.242;2023-05-10T13:23:50;2.20;;;1.45;;
57573;SDS011;68988;49.000;21.242;2023-05-10T13:26:15;9.70;;;1.17;;
57573;SDS011;68988;49.000;21.242;2023-05-10T13:28:40;2.50;;;1.35;;
57573;SDS011;68988;49.000;21.242;2023-05-10T13:31:06;15.10;;;1.33;;
57573;SDS011;68988;49.000;21.242;2023-05-10T13:33:32;3.10;;;1.50;;
57573;SDS011;68988;49.000;21.242;2023-05-10T13:35:57;10.88;;;1.40;;
57573;SDS011;68988;49.000;21.242;2023-05-10T13:38:22;16.77;;;2.03;;
57573;SDS011;68988;49.000;21.242;2023-05-10T13:40:48;5.82;;;1.70;;
57573;SDS011;68988;49.000;21.242;2023-05-10T13:43:17;4.10;;;1.55;;
57573;SDS011;68988;49.000;21.242;2023-05-10T13:45:42;5.65;;;1.27;;
57573;SDS011;68988;49.000;21.242;2023-05-10T13:48:08;6.90;;;1.35;;
57573;SDS011;68988;49.000;21.242;2023-05-10T13:50:33;17.42;;;1.88;;
57573;SDS011;68988;49.000;21.242;2023-05-10T13:52:58;11.77;;;1.30;;
57573;SDS011;68988;49.000;21.242;2023-05-10T13:55:24;7.45;;;1.38;;
57573;SDS011;68988;49.000;21.242;2023-05-10T13:57:49;10.65;;;1.33;;
57573;SDS011;68988;49.000;21.242;2023-05-10T14:00:15;7.00;;;1.20;;
57573;SDS011;68988;49.000;21.242;2023-05-10T14:02:41;6.97;;;1.70;;
57573;SDS011;68988;49.000;21.242;2023-05-10T14:05:06;2.42;;;1.30;;
57573;SDS011;68988;49.000;21.242;2023-05-10T14:07:32;6.90;;;1.40;;
57573;SDS011;68988;49.000;21.242;2023-05-10T14:09:58;7.35;;;1.40;;
57573;SDS011;68988;49.000;21.242;2023-05-10T14:12:23;6.88;;;1.20;;
57573;SDS011;68988;49.000;21.242;2023-05-10T14:14:48;6.25;;;1.20;;
57573;SDS011;68988;49.000;21.242;2023-05-10T14:17:14;2.60;;;1.20;;
57573;SDS011;68988;49.000;21.242;2023-05-10T14:19:39;2.08;;;1.10;;
57573;SDS011;68988;49.000;21.242;2023-05-10T14:22:05;3.33;;;1.23;;
57573;SDS011;68988;49.000;21.242;2023-05-10T14:24:30;2.75;;;1.15;;
57573;SDS011;68988;49.000;21.242;2023-05-10T14:26:56;3.15;;;1.30;;
57573;SDS011;68988;49.000;21.242;2023-05-10T14:29:21;4.85;;;1.30;;
57573;SDS011;68988;49.000;21.242;2023-05-10T14:31:47;4.10;;;1.00;;
57573;SDS011;68988;49.000;21.242;2023-05-10T14:34:12;6.63;;;1.58;;
57573;SDS011;68988;49.000;21.242;2023-05-10T14:36:37;8.23;;;1.65;;
57573;SDS011;68988;49.000;21.242;2023-05-10T14:39:03;5.50;;;1.30;;
57573;SDS011;68988;49.000;21.242;2023-05-10T14:41:28;8.38;;;1.55;;
57573;SDS011;68988;49.000;21.242;2023-05-10T14:43:55;8.32;;;1.40;;
57573;SDS011;68988;49.000;21.242;2023-05-10T14:46:20;4.43;;;1.33;;
57573;SDS011;68988;49.000;21.242;2023-05-10T14:48:46;2.90;;;1.40;;
57573;SDS011;68988;49.000;21.242;2023-05-10T14:51:11;2.20;;;1.40;;
57573;SDS011;68988;49.000;21.242;2023-05-10T14:53:37;2.60;;;1.10;;
57573;SDS011;68988;49.000;21.242;2023-05-10T14:56:02;9.32;;;1.25;;
57573;SDS011;68988;49.000;21.242;2023-05-10T14:58:28;5.57;;;1.10;;
57573;SDS011;68988;49.000;21.242;2023-05-10T15:00:53;8.60;;;1.27;;
57573;SDS011;68988;49.000;21.242;2023-05-10T15:03:18;1.90;;;1.15;;
57573;SDS011;68988;49.000;21.242;2023-05-10T15:05:44;2.33;;;1.30;;
57573;SDS011;68988;49.000;21.242;2023-05-10T15:08:09;1.83;;;1.40;;
57573;SDS011;68988;49.000;21.242;2023-05-10T15:10:35;1.63;;;1.00;;